Terminal Aerodrome Forecast
Issued by NWS Quad Cities IA IL

Home | Current Version | Previous Version | Text Only | Print | Product List | Glossary On
Versions: 1 2 3 4 5 6 7 8 9 10 11 12 13 14 15 16 17 18 19 20 21 22 23 24 25 26 27
801
FTUS43 KDVN 231732
TAFDBQ
TAF
KDBQ 231732Z 2318/2418 32010KT P6SM VCSH BKN020
     FM240000 33007KT P6SM BKN040
     FM240400 34006KT 4SM BR SCT004 BKN012
     FM241600 02010KT P6SM BKN015=

USA.gov is the U.S. government's official web portal to all federal, state and local government web resources and services.